createdAt,value
2024-02-02T00:04:16.797Z,14.97
2024-02-02T00:09:25.649Z,12.57
2024-02-02T00:14:33.860Z,17.30
2024-02-02T00:19:39.328Z,11.07
2024-02-02T00:24:45.197Z,15.23
2024-02-02T00:29:55.767Z,16.87
2024-02-02T00:35:04.283Z,15.07
2024-02-02T00:40:12.955Z,18.93
2024-02-02T00:45:22.757Z,16.57
2024-02-02T00:50:30.279Z,12.97
2024-02-02T00:55:35.496Z,15.53
2024-02-02T01:00:43.758Z,9.80
2024-02-02T01:05:49.274Z,16.07
2024-02-02T01:10:54.791Z,13.27
2024-02-02T01:16:03.064Z,19.40
2024-02-02T01:21:09.422Z,13.70
2024-02-02T01:26:15.493Z,13.93
2024-02-02T01:31:23.405Z,11.47
2024-02-02T01:36:28.779Z,12.07
2024-02-02T01:41:34.238Z,17.17
2024-02-02T01:46:42.073Z,18.80
2024-02-02T01:51:47.296Z,20.17
2024-02-02T01:56:53.309Z,21.70
2024-02-02T02:02:02.746Z,12.87
2024-02-02T02:07:09.390Z,14.70
2024-02-02T02:12:14.876Z,13.50
2024-02-02T02:17:26.165Z,16.23
2024-02-02T02:22:34.336Z,12.43
2024-02-02T02:27:39.909Z,14.93
2024-02-02T02:32:45.555Z,15.27
2024-02-02T02:37:54.287Z,13.83
2024-02-02T02:43:01.301Z,19.50
2024-02-02T02:48:06.726Z,15.23
2024-02-02T02:53:14.714Z,9.20
2024-02-02T02:58:20.108Z,14.27
2024-02-02T03:03:25.442Z,15.10
2024-02-02T03:08:33.408Z,23.00
2024-02-02T03:13:38.921Z,13.63
2024-02-02T03:18:45.792Z,18.60
2024-02-02T03:23:54.031Z,17.13
2024-02-02T03:29:02.248Z,14.33
2024-02-02T03:34:08.032Z,26.40
2024-02-02T03:39:16.938Z,19.97
2024-02-02T03:44:25.039Z,13.97
2024-02-02T03:49:30.602Z,18.53
2024-02-02T03:54:38.875Z,14.63
2024-02-02T03:59:44.643Z,14.50
2024-02-02T04:04:50.001Z,20.20
2024-02-02T04:09:58.445Z,23.83
2024-02-02T04:15:03.629Z,17.17
2024-02-02T04:20:10.561Z,21.13
2024-02-02T04:25:18.538Z,21.10
2024-02-02T04:30:23.917Z,22.93
2024-02-02T04:35:31.197Z,25.80
2024-02-02T04:40:38.981Z,16.33
2024-02-02T04:45:45.476Z,24.60
2024-02-02T04:50:51.275Z,23.20
2024-02-02T04:55:59.111Z,25.90
2024-02-02T05:01:05.051Z,25.70
2024-02-02T05:06:11.403Z,22.13
2024-02-02T05:11:20.043Z,27.50
2024-02-02T05:16:27.160Z,16.43
2024-02-02T05:21:35.957Z,19.10
2024-02-02T05:26:45.998Z,25.30
2024-02-02T05:31:51.415Z,17.77
2024-02-02T05:37:06.005Z,23.40
2024-02-02T05:42:15.191Z,25.70
2024-02-02T05:47:22.812Z,22.93
2024-02-02T05:52:28.958Z,23.27
2024-02-02T05:57:37.171Z,15.77
2024-02-02T06:02:43.408Z,25.10
2024-02-02T06:07:49.025Z,21.43
2024-02-02T06:13:01.912Z,20.67
2024-02-02T06:18:09.126Z,23.80
2024-02-02T06:23:18.039Z,18.40
2024-02-02T06:28:28.438Z,20.90
2024-02-02T06:33:33.818Z,20.57
2024-02-02T06:38:41.228Z,18.50
2024-02-02T06:43:51.283Z,25.30
2024-02-02T06:48:59.095Z,13.93
2024-02-02T06:54:04.696Z,25.13
2024-02-02T06:59:13.378Z,23.70
2024-02-02T07:04:21.699Z,16.33
2024-02-02T07:09:35.228Z,20.90
2024-02-02T07:14:52.475Z,22.03
2024-02-02T07:19:58.594Z,26.10
2024-02-02T07:31:22.688Z,18.30
2024-02-02T07:36:35.136Z,27.10
2024-02-02T07:41:48.372Z,17.63
2024-02-02T07:46:57.568Z,24.03
2024-02-02T07:52:03.699Z,30.57
2024-02-02T07:57:09.305Z,25.77
2024-02-02T08:02:18.708Z,16.80
2024-02-02T08:07:24.137Z,17.23
2024-02-02T08:12:39.863Z,25.13
2024-02-02T08:17:49.138Z,24.77
2024-02-02T08:22:54.445Z,16.67
2024-02-02T08:28:00.094Z,18.93
2024-02-02T08:33:25.444Z,19.43
2024-02-02T08:38:34.232Z,17.70
2024-02-02T08:43:45.585Z,25.67
2024-02-02T08:48:56.740Z,20.10
2024-02-02T08:54:35.618Z,22.33
2024-02-02T08:59:44.874Z,16.97
2024-02-02T09:05:08.155Z,16.63
2024-02-02T09:10:44.870Z,15.63
2024-02-02T09:15:50.316Z,14.50
2024-02-02T09:21:00.465Z,20.97
2024-02-02T09:26:13.628Z,16.20
2024-02-02T09:31:26.921Z,18.40
2024-02-02T09:36:35.370Z,11.80
2024-02-02T09:42:06.373Z,14.17
2024-02-02T09:47:33.600Z,17.67
2024-02-02T09:52:58.901Z,15.43
2024-02-02T09:58:12.424Z,9.87
2024-02-02T10:03:28.577Z,13.53
2024-02-02T10:08:56.123Z,15.07
2024-02-02T10:14:15.609Z,15.23
2024-02-02T10:19:52.000Z,15.77
2024-02-02T10:25:13.913Z,16.13
2024-02-02T10:30:33.557Z,10.50
2024-02-02T10:35:49.282Z,10.47
2024-02-02T10:41:09.860Z,10.83
2024-02-02T10:52:34.939Z,10.67
2024-02-02T11:03:42.603Z,12.73
2024-02-02T11:08:59.433Z,13.47
2024-02-02T11:14:17.686Z,4.77
2024-02-02T11:19:46.781Z,5.17
2024-02-02T11:25:11.211Z,12.33
2024-02-02T11:30:35.007Z,10.87
2024-02-02T11:35:51.842Z,13.77
2024-02-02T11:41:02.157Z,10.33
2024-02-02T11:46:11.027Z,12.57
2024-02-02T11:51:22.230Z,13.20
2024-02-02T11:56:36.618Z,11.17
2024-02-02T12:01:58.933Z,8.37
2024-02-02T12:07:17.023Z,8.10
2024-02-02T12:12:27.959Z,9.30
2024-02-02T12:17:36.488Z,8.70
2024-02-02T12:22:41.838Z,9.23
2024-02-02T12:27:48.093Z,6.87
2024-02-02T12:33:00.647Z,8.50
2024-02-02T12:38:08.785Z,10.63
2024-02-02T12:43:13.954Z,14.43
2024-02-02T12:48:25.889Z,8.83
2024-02-02T12:53:45.307Z,10.93
2024-02-02T12:58:50.738Z,8.23
2024-02-02T13:03:59.907Z,7.23
2024-02-02T13:09:30.965Z,10.27
2024-02-02T13:14:39.569Z,6.23
2024-02-02T13:19:49.463Z,7.63
2024-02-02T13:24:58.602Z,6.13
2024-02-02T13:30:06.551Z,10.03
2024-02-02T13:35:24.506Z,8.17
2024-02-02T13:40:30.744Z,8.67
2024-02-02T13:45:36.184Z,7.17
2024-02-02T13:51:01.297Z,5.00
2024-02-02T13:56:14.019Z,9.70
2024-02-02T14:01:22.954Z,7.77
2024-02-02T14:06:33.798Z,13.83
2024-02-02T14:11:39.461Z,5.80
2024-02-02T14:16:44.971Z,6.07
2024-02-02T14:21:54.097Z,10.57
2024-02-02T14:27:00.428Z,6.27
2024-02-02T14:32:06.001Z,7.23
2024-02-02T14:37:16.179Z,7.93
2024-02-02T14:42:23.705Z,9.47
2024-02-02T14:47:29.313Z,10.53
2024-02-02T14:52:37.187Z,5.27
2024-02-02T14:57:45.793Z,7.73
2024-02-02T15:02:57.221Z,5.40
2024-02-02T15:08:05.539Z,6.43
2024-02-02T15:13:12.028Z,9.50
2024-02-02T15:18:21.159Z,11.10
2024-02-02T15:23:29.656Z,9.73
2024-02-02T15:28:35.951Z,9.93
2024-02-02T15:33:42.657Z,4.67
2024-02-02T15:39:06.683Z,13.57
2024-02-02T15:44:16.217Z,9.20
2024-02-02T15:49:21.975Z,5.13
2024-02-02T15:54:30.414Z,7.43
2024-02-02T15:59:41.060Z,8.33
2024-02-02T16:04:58.739Z,7.20
2024-02-02T16:10:07.252Z,10.53
2024-02-02T16:15:13.570Z,7.47
2024-02-02T16:20:21.833Z,8.20
2024-02-02T16:25:32.721Z,7.90
2024-02-02T16:30:38.501Z,11.57
2024-02-02T16:35:44.137Z,6.93
2024-02-02T16:40:52.052Z,7.30
2024-02-02T16:45:57.272Z,8.67
2024-02-02T16:51:02.553Z,7.30
2024-02-02T16:56:19.976Z,11.70
2024-02-02T17:01:32.178Z,7.83
2024-02-02T17:06:37.517Z,8.47
2024-02-02T17:11:49.786Z,8.33
2024-02-02T17:16:55.507Z,8.90
2024-02-02T17:22:01.449Z,10.33
2024-02-02T17:27:09.624Z,9.23
2024-02-02T17:32:17.582Z,9.90
2024-02-02T17:37:23.193Z,11.77
2024-02-02T17:42:31.187Z,11.53
2024-02-02T17:47:42.154Z,9.30
2024-02-02T17:52:54.503Z,15.43
2024-02-02T17:58:10.399Z,11.10
2024-02-02T18:03:21.464Z,6.17
2024-02-02T18:08:30.268Z,9.20
2024-02-02T18:14:04.556Z,10.30
2024-02-02T18:24:51.986Z,7.30
2024-02-02T18:30:00.108Z,9.90
2024-02-02T18:35:05.624Z,7.10
2024-02-02T18:40:12.569Z,6.80
2024-02-02T18:45:22.951Z,7.40
2024-02-02T18:50:28.874Z,7.90
2024-02-02T18:55:34.274Z,6.30
2024-02-02T19:00:42.397Z,8.17
2024-02-02T19:05:56.243Z,9.97
2024-02-02T19:11:03.784Z,8.83
2024-02-02T19:16:19.627Z,8.30
2024-02-02T19:21:26.995Z,7.37
2024-02-02T19:26:32.563Z,9.10
2024-02-02T19:31:41.996Z,8.80
2024-02-02T19:36:48.472Z,8.70
2024-02-02T19:41:59.218Z,6.43
2024-02-02T19:47:07.794Z,8.70
2024-02-02T19:52:13.296Z,8.60
2024-02-02T19:57:18.953Z,5.10
2024-02-02T20:02:30.216Z,9.60
2024-02-02T20:07:36.174Z,6.87
2024-02-02T20:12:43.366Z,10.07
2024-02-02T20:17:52.859Z,9.03
2024-02-02T20:22:59.140Z,8.47
2024-02-02T20:28:07.901Z,6.60
2024-02-02T20:33:17.033Z,7.93
2024-02-02T20:38:22.755Z,9.17
2024-02-02T20:43:31.733Z,6.43
2024-02-02T20:48:39.906Z,5.87
2024-02-02T20:53:46.671Z,8.73
2024-02-02T20:58:53.845Z,6.67
2024-02-02T21:04:08.137Z,8.37
2024-02-02T21:09:17.836Z,12.70
2024-02-02T21:14:23.278Z,8.70
2024-02-02T21:19:32.572Z,8.90
2024-02-02T21:24:38.257Z,8.10
2024-02-02T21:29:50.931Z,8.47
2024-02-02T21:34:58.985Z,10.63
2024-02-02T21:40:07.674Z,11.10
2024-02-02T21:45:14.849Z,10.50
2024-02-02T21:50:25.785Z,9.53
2024-02-02T21:55:33.762Z,10.87
2024-02-02T22:00:39.790Z,11.67
2024-02-02T22:05:49.982Z,12.87
2024-02-02T22:10:55.593Z,11.00
2024-02-02T22:16:01.968Z,8.63
2024-02-02T22:21:10.392Z,11.23
2024-02-02T22:26:15.738Z,15.20
2024-02-02T22:31:21.838Z,13.47
2024-02-02T22:36:29.871Z,12.50
2024-02-02T22:41:37.953Z,10.00
2024-02-02T22:46:43.281Z,12.40
2024-02-02T22:51:52.374Z,10.53
2024-02-02T22:56:57.823Z,12.57
2024-02-02T23:02:03.145Z,11.47
2024-02-02T23:07:11.379Z,11.53
2024-02-02T23:12:16.940Z,13.90
2024-02-02T23:17:22.776Z,11.93
2024-02-02T23:22:31.817Z,11.63
2024-02-02T23:27:38.155Z,13.97
2024-02-02T23:32:48.115Z,12.73
2024-02-02T23:37:56.006Z,15.93
2024-02-02T23:43:01.692Z,13.23
2024-02-02T23:48:08.027Z,13.57
2024-02-02T23:53:16.099Z,9.97
2024-02-02T23:58:21.952Z,9.87
